Time;durP1;ratioP1;P1;durP2;ratioP2;P2;SDS_P1;SDS_P2;PMS_P1;PMS_P2;Temp;Humidity;BMP_temperature;BMP_pressure;BME280_temperature;BME280_humidity;BME280_pressure;Samples;Min_cycle;Max_cycle;Signal;HPM_P1;HPM_P2
2023/02/06 00:05:58;;;;;;;17.00;7.28;;;-2.80;99.90;;;;;;20908862;28;20041;-62
2023/02/06 00:15:59;;;;;;;154.10;13.10;;;-2.80;99.90;;;;;;20907790;28;20029;-63
2023/02/06 00:26:01;;;;;;;59.33;8.38;;;-2.80;99.90;;;;;;20908339;28;20071;-63
2023/02/06 00:36:04;;;;;;;15.70;6.90;;;-2.90;99.90;;;;;;20906752;28;20032;-60
2023/02/06 00:46:05;;;;;;;15.63;7.63;;;-3.20;99.90;;;;;;20887730;28;20029;-63
2023/02/06 00:56:07;;;;;;;12.13;7.07;;;-3.20;99.90;;;;;;20904593;28;20630;-63
2023/02/06 01:06:09;;;;;;;12.30;6.28;;;-3.30;99.90;;;;;;20904274;28;20339;-63
2023/02/06 01:16:16;;;;;;;11.02;4.93;;;-3.40;99.90;;;;;;20885256;28;20059;-62
2023/02/06 01:26:21;;;;;;;8.75;4.55;;;-3.60;99.90;;;;;;20902852;28;20324;-62
2023/02/06 01:36:23;;;;;;;10.27;4.65;;;-4.10;99.90;;;;;;20902321;28;20043;-60
2023/02/06 01:46:24;;;;;;;9.85;4.82;;;-4.40;99.90;;;;;;20901941;28;20331;-62
2023/02/06 01:56:30;;;;;;;13.70;5.47;;;-4.30;99.90;;;;;;20901549;28;20419;-62
2023/02/06 02:06:33;;;;;;;14.68;5.93;;;-4.00;99.90;;;;;;20879087;28;20068;-62
2023/02/06 02:17:12;;;;;;;13.27;5.90;;;-3.80;99.90;;;;;;20917431;28;20031;-62
2023/02/06 02:27:35;;;;;;;12.85;6.28;;;-3.80;99.90;;;;;;20916486;28;20029;-62
2023/02/06 02:38:04;;;;;;;11.07;5.78;;;-3.90;99.90;;;;;;20913628;28;20037;-62
2023/02/06 02:48:13;;;;;;;9.85;5.30;;;-4.10;99.90;;;;;;20913185;28;20043;-61
2023/02/06 02:58:20;;;;;;;10.10;4.78;;;-4.60;99.90;;;;;;20915214;28;20112;-62
2023/02/06 03:08:43;;;;;;;10.23;5.13;;;-4.90;99.90;;;;;;20915724;28;20425;-60
2023/02/06 03:18:52;;;;;;;12.10;5.13;;;-5.00;99.90;;;;;;20894145;28;20440;-60
2023/02/06 03:28:59;;;;;;;12.07;5.47;;;-4.80;99.90;;;;;;20911791;28;20033;-60
2023/02/06 03:39:01;;;;;;;12.45;4.63;;;-4.80;99.90;;;;;;20910221;28;20028;-61
2023/02/06 03:49:07;;;;;;;11.38;5.03;;;-5.20;99.90;;;;;;20910329;28;20029;-60
2023/02/06 03:59:08;;;;;;;9.98;5.22;;;-5.60;99.90;;;;;;20908261;28;20102;-60
2023/02/06 04:09:10;;;;;;;10.95;5.00;;;-5.80;99.90;;;;;;20908409;28;20107;-60
2023/02/06 04:19:12;;;;;;;14.63;5.72;;;-5.90;99.90;;;;;;20908045;28;20021;-60
2023/02/06 04:29:13;;;;;;;11.45;5.10;;;-6.00;99.90;;;;;;20907442;28;20126;-60
2023/02/06 04:39:15;;;;;;;12.10;4.50;;;-6.00;99.90;;;;;;20907251;28;20033;-59
2023/02/06 04:49:17;;;;;;;11.77;4.77;;;-6.10;99.90;;;;;;20900673;28;20028;-59
2023/02/06 04:59:18;;;;;;;16.98;7.03;;;-6.20;99.90;;;;;;20902695;28;20486;-62
2023/02/06 05:09:20;;;;;;;16.60;4.93;;;-6.20;99.90;;;;;;20904180;28;20082;-60
2023/02/06 05:19:21;;;;;;;13.02;5.85;;;-6.20;99.90;;;;;;20901843;28;20387;-62
2023/02/06 05:29:24;;;;;;;11.25;4.80;;;-6.30;99.90;;;;;;20885036;28;20042;-62
2023/02/06 05:39:26;;;;;;;9.27;4.03;;;-6.20;99.90;;;;;;20902090;28;20036;-60
2023/02/06 05:49:27;;;;;;;8.32;4.28;;;-6.20;99.90;;;;;;20884168;28;20072;-59
2023/02/06 05:59:29;;;;;;;9.18;4.88;;;-6.20;99.90;;;;;;20900970;28;20041;-59
2023/02/06 06:09:31;;;;;;;10.70;4.53;;;-6.10;99.90;;;;;;20898125;28;20044;-60
2023/02/06 06:19:32;;;;;;;13.85;5.38;;;-5.80;99.90;;;;;;20898661;28;20075;-60
2023/02/06 06:29:34;;;;;;;13.20;4.80;;;-5.60;99.90;;;;;;20899673;28;20037;-60
2023/02/06 06:39:36;;;;;;;11.15;4.82;;;-5.40;99.90;;;;;;20879851;28;20041;-60
2023/02/06 06:49:37;;;;;;;9.88;4.45;;;-5.50;99.90;;;;;;20905484;28;20028;-60
2023/02/06 06:59:39;;;;;;;10.70;4.88;;;-5.70;99.90;;;;;;20913472;28;20041;-60
2023/02/06 07:09:41;;;;;;;12.20;4.32;;;-5.70;99.90;;;;;;20912734;28;20437;-60
2023/02/06 07:19:46;;;;;;;9.40;4.47;;;-5.50;99.90;;;;;;20910860;28;20037;-60
2023/02/06 07:29:48;;;;;;;7.28;4.07;;;-5.00;99.90;;;;;;20909473;28;20035;-60
2023/02/06 07:39:50;;;;;;;12.30;4.55;;;-4.40;99.90;;;;;;20908671;28;20029;-60
2023/02/06 07:49:52;;;;;;;8.70;3.88;;;-4.10;99.90;;;;;;20910298;28;20041;-60
2023/02/06 07:59:54;;;;;;;8.20;3.83;;;-3.90;99.90;;;;;;20908491;28;20045;-60
2023/02/06 08:09:55;;;;;;;6.95;4.03;;;-3.60;99.90;;;;;;20907935;28;20033;-61
2023/02/06 08:19:57;;;;;;;7.75;3.80;;;-3.30;99.90;;;;;;20908024;28;20025;-60
2023/02/06 08:29:59;;;;;;;12.35;4.88;;;-2.90;99.90;;;;;;20907257;28;20040;-59
2023/02/06 08:40:01;;;;;;;8.52;4.32;;;-2.70;99.90;;;;;;20906707;28;20029;-60
2023/02/06 08:50:03;;;;;;;7.30;3.78;;;-2.40;99.90;;;;;;20905868;28;20079;-60
2023/02/06 09:00:06;;;;;;;8.05;3.83;;;-2.30;99.90;;;;;;20904222;28;20045;-60
2023/02/06 09:10:08;;;;;;;5.35;3.10;;;-2.20;99.90;;;;;;20903748;28;20044;-59
2023/02/06 09:20:10;;;;;;;8.95;4.30;;;-1.80;99.90;;;;;;20901561;28;20106;-60
2023/02/06 09:30:14;;;;;;;212.68;13.15;;;-1.50;99.90;;;;;;20902866;28;20474;-59
2023/02/06 09:40:22;;;;;;;123.03;10.32;;;-1.40;99.90;;;;;;20900906;28;20040;-59
2023/02/06 09:50:50;;;;;;;230.52;16.13;;;-1.60;99.90;;;;;;20899900;28;20037;-59
2023/02/06 10:01:18;;;;;;;10.90;4.63;;;-1.70;99.90;;;;;;20901553;28;20444;-59
2023/02/06 10:11:50;;;;;;;60.67;7.70;;;-1.70;99.90;;;;;;20891709;28;20087;-60
2023/02/06 10:22:01;;;;;;;13.82;5.53;;;-1.80;99.90;;;;;;20903435;28;20028;-59
2023/02/06 10:32:18;;;;;;;8.45;4.78;;;-1.90;99.90;;;;;;20913830;28;20351;-59
2023/02/06 10:42:43;;;;;;;9.02;5.53;;;-1.90;99.90;;;;;;20913224;28;20048;-59
2023/02/06 10:52:45;;;;;;;171.40;15.43;;;-1.90;99.90;;;;;;20912346;28;20053;-59
2023/02/06 11:02:54;;;;;;;469.33;30.30;;;-2.10;99.90;;;;;;20912594;28;20044;-59
2023/02/06 11:13:03;;;;;;;12.35;6.78;;;-2.40;99.90;;;;;;20915091;28;20136;-61
2023/02/06 11:23:19;;;;;;;62.75;11.70;;;-2.50;99.90;;;;;;20912409;28;20037;-60
2023/02/06 11:33:33;;;;;;;224.98;18.80;;;-2.50;99.90;;;;;;20897018;28;20037;-59
2023/02/06 11:43:41;;;;;;;40.08;10.13;;;-2.70;99.90;;;;;;20911053;28;20063;-60
2023/02/06 11:54:02;;;;;;;133.40;16.98;;;-2.80;99.90;;;;;;20911029;28;20378;-59
2023/02/06 12:04:07;;;;;;;49.03;10.00;;;-2.90;99.90;;;;;;20908972;28;20044;-61
2023/02/06 12:14:28;;;;;;;12.20;6.78;;;-3.10;99.90;;;;;;20909679;28;20036;-60
2023/02/06 12:24:40;;;;;;;72.60;8.70;;;-3.10;99.90;;;;;;20905713;28;20032;-59
2023/02/06 12:34:55;;;;;;;161.48;13.77;;;-3.10;99.90;;;;;;20906948;28;20390;-58
2023/02/06 12:45:03;;;;;;;38.80;9.65;;;-3.10;99.90;;;;;;20905123;28;20025;-59
2023/02/06 12:55:56;;;;;;;10.65;6.18;;;-3.20;99.90;;;;;;20905153;28;20032;-59
2023/02/06 13:06:32;;;;;;;12.40;7.07;;;-3.20;99.90;;;;;;20730304;28;20065;-60
2023/02/06 13:16:42;;;;;;;65.85;10.55;;;-3.10;99.90;;;;;;20721397;28;20048;-59
2023/02/06 13:26:55;;;;;;;30.33;7.07;;;-3.10;99.90;;;;;;20727224;28;20084;-59
2023/02/06 13:37:31;;;;;;;13.43;7.22;;;-3.00;99.90;;;;;;20802243;28;20070;-60
2023/02/06 13:48:02;;;;;;;100.80;11.23;;;-3.00;99.90;;;;;;20901515;28;20025;-59
2023/02/06 13:58:09;;;;;;;14.93;7.47;;;-3.00;99.90;;;;;;20906621;28;20398;-59
2023/02/06 14:08:42;;;;;;;88.82;11.75;;;-2.90;99.90;;;;;;20916848;28;20643;-59
2023/02/06 14:19:18;;;;;;;95.82;11.77;;;-2.90;99.90;;;;;;20910874;28;20119;-62
2023/02/06 14:29:26;;;;;;;20.15;8.93;;;-3.10;99.90;;;;;;20875648;28;20040;-59
2023/02/06 14:39:49;;;;;;;59.25;10.70;;;-3.10;99.90;;;;;;20878547;28;20049;-59
2023/02/06 14:49:52;;;;;;;166.05;13.02;;;-3.20;99.90;;;;;;20871739;28;20378;-58
2023/02/06 15:00:12;;;;;;;51.53;9.45;;;-3.30;99.90;;;;;;20883392;28;20041;-58
2023/02/06 15:10:17;;;;;;;17.80;8.50;;;-3.50;99.90;;;;;;20915346;28;20025;-58
2023/02/06 15:20:37;;;;;;;16.65;8.80;;;-3.40;99.90;;;;;;20913105;28;20029;-59
2023/02/06 15:30:39;;;;;;;11.03;6.73;;;-3.10;99.90;;;;;;20910591;28;20033;-59
2023/02/06 15:40:44;;;;;;;14.77;7.68;;;-2.90;99.90;;;;;;20909896;28;20037;-59
2023/02/06 15:50:59;;;;;;;15.90;7.07;;;-2.90;99.90;;;;;;20906122;28;20025;-60
2023/02/06 16:01:02;;;;;;;14.50;8.10;;;-3.00;99.90;;;;;;20907307;28;20067;-61
2023/02/06 16:11:45;;;;;;;13.52;7.13;;;-3.10;99.90;;;;;;20907317;28;20033;-60
2023/02/06 16:21:32;;;;;;;18.73;8.68;;;-3.40;99.90;;;;;;20907090;28;20107;-60
2023/02/06 16:31:39;;;;;;;21.00;10.18;;;-3.50;99.90;;;;;;20907163;28;20083;-60
2023/02/06 16:41:42;;;;;;;23.13;10.02;;;-3.70;99.90;;;;;;20885987;28;20036;-60
2023/02/06 16:51:45;;;;;;;26.63;10.68;;;-3.80;99.90;;;;;;20905502;28;20313;-59
2023/02/06 17:01:47;;;;;;;27.92;11.27;;;-3.80;99.90;;;;;;20902074;28;20045;-60
2023/02/06 17:11:50;;;;;;;23.75;10.50;;;-3.90;99.90;;;;;;20902390;28;20037;-60
2023/02/06 17:21:52;;;;;;;22.80;12.15;;;-3.90;99.90;;;;;;20903435;28;20505;-60
2023/02/06 17:31:54;;;;;;;24.00;11.07;;;-4.00;99.90;;;;;;20899675;28;20036;-60
2023/02/06 17:41:55;;;;;;;17.27;9.45;;;-4.00;99.90;;;;;;20902023;28;20025;-60
2023/02/06 17:51:57;;;;;;;12.20;6.60;;;-4.00;99.90;;;;;;20899679;28;20033;-60
2023/02/06 18:02:00;;;;;;;24.65;10.65;;;-3.90;99.90;;;;;;20899731;28;20402;-59
2023/02/06 18:12:01;;;;;;;21.95;10.50;;;-3.90;99.90;;;;;;20883031;28;20293;-60
2023/02/06 18:22:03;;;;;;;24.30;11.45;;;-4.00;99.90;;;;;;20898669;28;20032;-60
2023/02/06 18:32:05;;;;;;;20.88;10.98;;;-4.10;99.90;;;;;;20901205;28;20037;-60
2023/02/06 18:52:27;;;;;;;22.57;10.77;;;-3.90;99.90;;;;;;20912191;28;20044;-60
2023/02/06 19:02:29;;;;;;;36.13;11.85;;;-3.90;99.90;;;;;;20914049;28;20045;-60
2023/02/06 19:12:31;;;;;;;17.85;9.25;;;-3.90;99.90;;;;;;20913593;28;20036;-59
2023/02/06 19:22:34;;;;;;;19.42;9.50;;;-4.00;99.90;;;;;;20912768;28;20083;-59
2023/02/06 19:32:36;;;;;;;18.90;9.07;;;-4.00;99.90;;;;;;20912016;28;20133;-60
2023/02/06 19:42:38;;;;;;;17.60;8.90;;;-4.10;99.90;;;;;;20910912;28;20470;-60
2023/02/06 19:52:39;;;;;;;21.25;10.02;;;-4.10;99.90;;;;;;20910264;28;20033;-59
2023/02/06 20:02:41;;;;;;;22.05;9.48;;;-4.20;99.90;;;;;;20909490;28;20049;-58
2023/02/06 20:12:43;;;;;;;13.52;7.07;;;-4.30;99.90;;;;;;20890950;28;20256;-59
2023/02/06 20:22:44;;;;;;;16.67;6.95;;;-4.40;99.90;;;;;;20891301;28;20071;-59
2023/02/06 20:32:46;;;;;;;14.00;6.13;;;-4.40;99.90;;;;;;20907389;28;20028;-59
2023/02/06 20:42:48;;;;;;;11.38;5.38;;;-4.60;99.90;;;;;;20906372;28;20379;-59
2023/02/06 20:52:50;;;;;;;10.70;5.38;;;-4.70;99.90;;;;;;20902518;28;20041;-59
2023/02/06 21:02:51;;;;;;;10.35;5.03;;;-4.80;99.90;;;;;;20904812;28;20053;-59
2023/02/06 21:12:53;;;;;;;5.85;2.63;;;-4.90;99.90;;;;;;20903629;28;20036;-60
2023/02/06 21:22:55;;;;;;;6.07;2.53;;;-5.00;99.90;;;;;;20903503;28;20025;-59
2023/02/06 21:32:57;;;;;;;3.83;1.70;;;-5.20;99.90;;;;;;20903246;28;20036;-59
2023/02/06 21:43:00;;;;;;;4.43;1.95;;;-5.30;99.90;;;;;;20902023;28;20099;-59
2023/02/06 21:53:01;;;;;;;3.95;1.77;;;-5.40;99.90;;;;;;20901860;28;20486;-59
2023/02/06 22:03:03;;;;;;;4.72;2.13;;;-5.50;99.90;;;;;;20884055;28;20083;-61
2023/02/06 22:13:05;;;;;;;4.60;1.75;;;-5.50;99.90;;;;;;20901096;28;20064;-59
2023/02/06 22:23:07;;;;;;;6.53;1.83;;;-5.60;99.90;;;;;;20912047;28;20040;-61
2023/02/06 22:33:08;;;;;;;5.05;1.73;;;-5.60;99.90;;;;;;20918940;28;20516;-58
2023/02/06 22:43:10;;;;;;;5.03;2.20;;;-5.60;99.90;;;;;;20869815;28;20095;-60
2023/02/06 22:53:30;;;;;;;4.82;1.60;;;-5.70;99.90;;;;;;20874214;28;20033;-60
2023/02/06 23:03:32;;;;;;;4.72;2.30;;;-5.80;99.90;;;;;;20875500;28;20053;-60
2023/02/06 23:13:34;;;;;;;5.68;2.78;;;-6.00;99.90;;;;;;20871234;28;20039;-62
2023/02/06 23:23:36;;;;;;;5.05;1.80;;;-6.30;99.90;;;;;;20887193;28;20388;-59
2023/02/06 23:33:39;;;;;;;4.28;2.13;;;-6.40;99.90;;;;;;20912074;28;20025;-62
2023/02/06 23:43:41;;;;;;;7.13;3.20;;;-6.30;99.90;;;;;;20911053;28;20348;-58
2023/02/06 23:53:43;;;;;;;6.93;2.20;;;-6.40;99.90;;;;;;20910772;28;20104;-60
